Time;durP1;ratioP1;P1;durP2;ratioP2;P2;SDS_P1;SDS_P2;PMS_P1;PMS_P2;Temp;Humidity;BMP_temperature;BMP_pressure;BME280_temperature;BME280_humidity;BME280_pressure;Samples;Min_cycle;Max_cycle;Signal;HPM_P1;HPM_P2
2024/03/05 00:01:06;;;;;;;40.97;25.53;;;10.30;99.90;;;;;;5024647;28;20431;-68
2024/03/05 00:03:32;;;;;;;46.47;26.60;;;10.30;99.90;;;;;;5023230;28;20249;-67
2024/03/05 00:05:57;;;;;;;51.43;26.97;;;10.30;99.90;;;;;;5022490;28;20172;-67
2024/03/05 00:08:23;;;;;;;51.33;27.30;;;10.30;99.90;;;;;;5014159;28;20196;-67
2024/03/05 00:10:48;;;;;;;50.27;25.30;;;10.30;99.90;;;;;;5023950;28;20176;-67
2024/03/05 00:13:14;;;;;;;50.50;27.00;;;10.40;99.90;;;;;;5017868;28;20181;-67
2024/03/05 00:15:40;;;;;;;50.73;25.57;;;10.40;99.90;;;;;;5018323;28;20208;-67
2024/03/05 00:18:06;;;;;;;44.33;25.80;;;10.30;99.90;;;;;;5018986;28;20196;-67
2024/03/05 00:20:34;;;;;;;45.73;26.47;;;10.30;99.90;;;;;;5016833;28;20181;-67
2024/03/05 00:23:00;;;;;;;50.67;26.93;;;10.40;99.90;;;;;;5018411;28;20755;-67
2024/03/05 00:25:26;;;;;;;46.87;27.50;;;10.30;99.90;;;;;;5014698;28;20486;-68
2024/03/05 00:27:52;;;;;;;46.60;25.33;;;10.30;99.90;;;;;;5013894;28;20178;-68
2024/03/05 00:30:18;;;;;;;46.73;25.73;;;10.40;99.90;;;;;;5020152;28;20470;-67
2024/03/05 00:32:44;;;;;;;39.77;25.27;;;10.40;99.90;;;;;;5015245;28;20549;-67
2024/03/05 00:35:10;;;;;;;44.20;25.77;;;10.50;99.90;;;;;;5018198;28;20784;-67
2024/03/05 00:37:37;;;;;;;44.63;26.63;;;10.50;99.90;;;;;;5024526;28;20484;-67
2024/03/05 00:40:06;;;;;;;49.93;25.67;;;10.50;99.90;;;;;;5024903;28;20545;-68
2024/03/05 00:42:33;;;;;;;50.10;28.10;;;10.50;99.90;;;;;;5019477;28;20909;-67
2024/03/05 00:44:58;;;;;;;49.77;26.23;;;10.50;99.90;;;;;;5015724;28;20463;-68
2024/03/05 00:47:24;;;;;;;47.57;27.50;;;10.50;99.90;;;;;;5017354;28;20408;-67
2024/03/05 00:49:49;;;;;;;47.60;26.83;;;10.50;99.90;;;;;;5017376;28;20176;-67
2024/03/05 00:52:15;;;;;;;48.17;26.80;;;10.50;99.90;;;;;;5012153;28;20275;-67
2024/03/05 00:54:40;;;;;;;50.90;28.23;;;10.50;99.90;;;;;;5030618;28;20721;-67
2024/03/05 00:57:06;;;;;;;46.43;25.00;;;10.50;99.90;;;;;;5016746;28;20196;-68
2024/03/05 00:59:32;;;;;;;50.90;27.87;;;10.50;99.90;;;;;;5022706;28;20186;-68
2024/03/05 01:01:59;;;;;;;46.63;26.00;;;10.50;99.90;;;;;;5021368;28;20253;-68
2024/03/05 01:04:25;;;;;;;48.17;26.90;;;10.50;99.90;;;;;;5021787;28;20200;-67
2024/03/05 01:06:51;;;;;;;45.57;25.80;;;10.40;99.90;;;;;;5021491;28;20415;-67
2024/03/05 01:09:19;;;;;;;49.30;25.60;;;10.40;99.90;;;;;;5022410;28;20415;-67
2024/03/05 01:11:44;;;;;;;49.40;28.07;;;10.40;99.90;;;;;;5019485;28;20403;-67
2024/03/05 01:14:10;;;;;;;51.20;27.77;;;10.40;99.90;;;;;;5019662;28;20441;-68
2024/03/05 01:16:37;;;;;;;50.07;27.20;;;10.40;99.90;;;;;;5014374;28;20655;-67
2024/03/05 01:19:03;;;;;;;48.10;27.83;;;10.40;99.90;;;;;;5022406;28;20172;-67
2024/03/05 01:21:30;;;;;;;49.10;28.40;;;10.50;99.90;;;;;;5020187;28;20921;-67
2024/03/05 01:23:57;;;;;;;52.13;29.77;;;10.50;99.90;;;;;;5019658;28;20753;-67
2024/03/05 01:26:22;;;;;;;55.43;26.93;;;10.50;99.90;;;;;;5015685;28;20448;-67
2024/03/05 01:28:48;;;;;;;49.23;26.57;;;10.50;99.90;;;;;;5024982;28;20448;-67
2024/03/05 01:31:14;;;;;;;53.50;28.40;;;10.50;99.90;;;;;;5022439;28;20624;-67
2024/03/05 01:33:40;;;;;;;47.07;27.50;;;10.50;99.90;;;;;;5015920;28;20189;-68
2024/03/05 01:36:06;;;;;;;49.27;25.63;;;10.50;99.90;;;;;;5018216;28;20185;-67
2024/03/05 01:38:33;;;;;;;44.97;27.60;;;10.50;99.90;;;;;;5021921;28;20445;-67
2024/03/05 01:40:59;;;;;;;50.77;27.43;;;10.50;99.90;;;;;;5013767;28;20828;-67
2024/03/05 01:43:24;;;;;;;55.33;28.30;;;10.50;99.90;;;;;;5016271;28;20421;-67
2024/03/05 01:45:51;;;;;;;54.17;28.30;;;10.50;99.90;;;;;;5018410;28;20180;-67
2024/03/05 01:48:18;;;;;;;43.90;26.37;;;10.50;99.90;;;;;;5011634;28;20189;-67
2024/03/05 01:50:44;;;;;;;43.20;26.80;;;10.50;99.90;;;;;;5021779;28;20419;-67
2024/03/05 01:53:14;;;;;;;47.47;28.20;;;10.50;99.90;;;;;;5018149;28;20446;-67
2024/03/05 01:55:41;;;;;;;46.80;27.00;;;10.50;99.90;;;;;;5016943;28;20487;-67
2024/03/05 01:58:13;;;;;;;57.10;27.20;;;10.50;99.90;;;;;;5020974;28;20439;-67
2024/03/05 02:00:38;;;;;;;45.10;26.70;;;10.50;99.90;;;;;;5025831;28;20419;-67
2024/03/05 02:03:05;;;;;;;55.77;28.43;;;10.50;99.90;;;;;;5014719;28;21053;-67
2024/03/05 02:05:32;;;;;;;52.63;29.30;;;10.50;99.90;;;;;;5020887;28;20209;-68
2024/03/05 02:07:58;;;;;;;49.00;27.40;;;10.50;99.90;;;;;;5021148;28;20415;-68
2024/03/05 02:10:24;;;;;;;50.00;26.07;;;10.60;99.90;;;;;;5017070;28;20426;-68
2024/03/05 02:12:50;;;;;;;47.87;27.57;;;10.60;99.90;;;;;;5015161;28;20439;-67
2024/03/05 02:15:16;;;;;;;49.30;26.87;;;10.60;99.90;;;;;;5021389;28;20205;-67
2024/03/05 02:17:45;;;;;;;54.37;29.00;;;10.60;99.90;;;;;;5019141;28;20638;-67
2024/03/05 02:20:13;;;;;;;47.83;28.23;;;10.60;99.90;;;;;;5018323;28;20272;-67
2024/03/05 02:22:39;;;;;;;39.47;25.37;;;10.60;99.90;;;;;;5014414;28;20466;-67
2024/03/05 02:25:05;;;;;;;49.70;24.43;;;10.60;99.90;;;;;;5020560;28;20520;-67
2024/03/05 02:27:39;;;;;;;45.00;27.43;;;10.70;99.90;;;;;;5025902;28;20516;-67
2024/03/05 02:30:10;;;;;;;45.50;26.60;;;10.70;99.90;;;;;;5021197;28;20423;-67
2024/03/05 02:32:40;;;;;;;50.93;25.80;;;10.70;99.90;;;;;;5012484;28;20974;-67
2024/03/05 02:35:07;;;;;;;47.73;26.83;;;10.70;99.90;;;;;;5018527;28;20482;-67
2024/03/05 02:37:39;;;;;;;47.87;26.30;;;10.70;99.90;;;;;;5023793;28;20427;-68
2024/03/05 02:40:08;;;;;;;43.63;26.47;;;10.70;99.90;;;;;;5021541;28;20765;-68
2024/03/05 02:42:34;;;;;;;50.80;27.43;;;10.70;99.90;;;;;;5015796;28;20462;-67
2024/03/05 02:45:00;;;;;;;51.87;28.40;;;10.70;99.90;;;;;;5022685;28;20470;-68
2024/03/05 02:47:25;;;;;;;47.23;26.20;;;10.70;99.90;;;;;;5022606;28;20416;-68
2024/03/05 02:49:51;;;;;;;54.50;27.40;;;10.80;99.90;;;;;;5018603;28;20183;-67
2024/03/05 02:52:16;;;;;;;44.30;25.37;;;10.80;99.90;;;;;;5018202;28;20188;-67
2024/03/05 02:54:42;;;;;;;42.93;25.97;;;10.80;99.90;;;;;;5023913;28;20258;-68
2024/03/05 02:57:08;;;;;;;40.97;26.10;;;10.80;99.90;;;;;;5023909;28;20189;-67
2024/03/05 02:59:34;;;;;;;51.67;25.97;;;10.60;99.90;;;;;;5017288;28;20678;-67
2024/03/05 03:02:00;;;;;;;50.00;27.20;;;10.40;99.90;;;;;;5022253;28;20419;-67
2024/03/05 03:04:26;;;;;;;50.33;27.13;;;10.40;99.90;;;;;;5019310;28;20213;-67
2024/03/05 03:06:52;;;;;;;45.70;26.77;;;10.40;99.90;;;;;;5019554;28;20438;-67
2024/03/05 03:09:18;;;;;;;47.47;26.07;;;10.40;99.90;;;;;;5021569;28;20179;-67
2024/03/05 03:11:47;;;;;;;48.50;27.37;;;10.40;99.90;;;;;;5022391;28;21373;-67
2024/03/05 03:14:13;;;;;;;47.27;25.53;;;10.30;99.90;;;;;;5024759;28;20216;-67
2024/03/05 03:16:40;;;;;;;46.80;26.27;;;10.40;99.90;;;;;;5012777;28;20485;-67
2024/03/05 03:19:06;;;;;;;41.17;25.80;;;10.40;99.90;;;;;;5022273;28;20715;-67
2024/03/05 03:21:31;;;;;;;50.27;27.97;;;10.40;99.90;;;;;;5014929;28;20489;-67
2024/03/05 03:23:57;;;;;;;45.47;27.07;;;10.40;99.90;;;;;;5021670;28;20877;-67
2024/03/05 03:26:23;;;;;;;51.00;26.07;;;10.40;99.90;;;;;;5020593;28;20231;-68
2024/03/05 03:28:49;;;;;;;43.67;26.80;;;10.40;99.90;;;;;;5020060;28;20175;-67
2024/03/05 03:31:14;;;;;;;52.77;28.30;;;10.40;99.90;;;;;;5019726;28;20461;-67
2024/03/05 03:33:40;;;;;;;47.10;25.80;;;10.40;99.90;;;;;;5017674;28;20192;-67
2024/03/05 03:36:06;;;;;;;46.50;25.30;;;10.40;99.90;;;;;;5018498;28;20779;-68
2024/03/05 03:38:34;;;;;;;44.67;26.13;;;10.40;99.90;;;;;;5021817;28;20230;-68
2024/03/05 03:40:59;;;;;;;46.13;25.90;;;10.30;99.90;;;;;;5018275;28;20692;-67
2024/03/05 03:43:25;;;;;;;52.30;26.20;;;10.40;99.90;;;;;;5019914;28;20437;-67
2024/03/05 03:45:51;;;;;;;47.43;26.87;;;10.30;99.90;;;;;;5018228;28;20193;-67
2024/03/05 03:48:17;;;;;;;47.63;25.77;;;10.30;99.90;;;;;;5019859;28;20283;-67
2024/03/05 03:50:43;;;;;;;46.47;26.57;;;10.40;99.90;;;;;;5015563;28;20185;-67
2024/03/05 03:53:10;;;;;;;45.87;26.00;;;10.30;99.90;;;;;;5013761;28;20184;-67
2024/03/05 03:55:37;;;;;;;47.67;26.03;;;10.30;99.90;;;;;;5020207;28;20912;-67
2024/03/05 03:58:03;;;;;;;49.60;27.17;;;10.30;99.90;;;;;;5023430;28;20472;-68
2024/03/05 04:00:29;;;;;;;47.27;27.40;;;10.30;99.90;;;;;;5020686;28;20931;-68
2024/03/05 04:02:54;;;;;;;44.13;24.80;;;10.30;99.90;;;;;;5016356;28;20176;-67
2024/03/05 04:05:20;;;;;;;60.20;27.37;;;10.30;99.90;;;;;;5014844;28;20472;-67
2024/03/05 04:07:46;;;;;;;46.27;25.40;;;10.20;99.90;;;;;;5015101;28;20184;-67
2024/03/05 04:10:12;;;;;;;44.93;26.80;;;10.20;99.90;;;;;;5018724;28;20644;-67
2024/03/05 04:12:39;;;;;;;47.20;26.73;;;10.20;99.90;;;;;;5017870;28;20824;-67
2024/03/05 04:15:05;;;;;;;46.50;24.83;;;10.30;99.90;;;;;;5016909;28;20451;-67
2024/03/05 04:17:30;;;;;;;42.57;25.87;;;10.30;99.90;;;;;;5018061;28;20466;-67
2024/03/05 04:19:56;;;;;;;40.70;25.90;;;10.20;99.90;;;;;;5016264;28;20419;-67
2024/03/05 04:22:22;;;;;;;46.50;26.93;;;10.30;99.90;;;;;;5019460;28;20192;-67
2024/03/05 04:24:56;;;;;;;42.57;25.73;;;10.30;99.90;;;;;;5015243;28;20221;-67
2024/03/05 04:27:24;;;;;;;46.70;26.40;;;10.20;99.90;;;;;;5019289;28;20523;-67
2024/03/05 04:29:57;;;;;;;41.97;25.30;;;10.30;99.90;;;;;;5014690;28;20411;-68
2024/03/05 04:32:26;;;;;;;40.67;23.87;;;10.30;99.90;;;;;;5013074;28;20476;-67
2024/03/05 04:35:00;;;;;;;44.40;24.20;;;10.30;99.90;;;;;;5017915;28;20522;-67
2024/03/05 04:37:32;;;;;;;42.37;25.50;;;10.30;99.90;;;;;;5025111;28;20521;-67
2024/03/05 04:39:58;;;;;;;54.50;25.50;;;10.30;99.90;;;;;;5020488;28;20458;-67
2024/03/05 04:42:25;;;;;;;47.63;26.27;;;10.30;99.90;;;;;;5016871;28;20470;-67
2024/03/05 04:44:53;;;;;;;45.03;25.90;;;10.30;99.90;;;;;;5018282;28;20785;-67
2024/03/05 04:47:18;;;;;;;42.17;25.50;;;10.30;99.90;;;;;;5019981;28;20604;-67
2024/03/05 04:49:44;;;;;;;43.73;25.63;;;10.20;99.90;;;;;;5023055;28;20423;-68
2024/03/05 04:52:10;;;;;;;46.83;26.33;;;10.20;99.90;;;;;;5021868;28;20805;-68
2024/03/05 04:54:36;;;;;;;41.63;23.77;;;10.20;99.90;;;;;;5023008;28;20275;-67
2024/03/05 04:57:02;;;;;;;50.93;29.00;;;10.30;99.90;;;;;;5015417;28;20196;-67
2024/03/05 04:59:28;;;;;;;47.20;24.60;;;10.20;99.90;;;;;;5017539;28;20184;-67
2024/03/05 05:01:54;;;;;;;43.47;25.47;;;10.20;99.90;;;;;;5017345;28;20423;-67
2024/03/05 05:04:19;;;;;;;44.20;25.17;;;10.20;99.90;;;;;;5013788;28;20987;-67
2024/03/05 05:06:45;;;;;;;44.13;25.40;;;10.20;99.90;;;;;;5013058;28;20185;-67
2024/03/05 05:09:11;;;;;;;42.20;25.97;;;10.20;99.90;;;;;;5023271;28;20307;-68
2024/03/05 05:11:36;;;;;;;57.47;29.70;;;10.20;99.90;;;;;;5015136;28;20905;-68
2024/03/05 05:14:02;;;;;;;45.93;25.73;;;10.20;99.90;;;;;;5019425;28;20207;-67
2024/03/05 05:16:28;;;;;;;47.47;28.60;;;10.10;99.90;;;;;;5013387;28;20680;-67
2024/03/05 05:18:54;;;;;;;48.80;25.93;;;10.10;99.90;;;;;;5019973;28;20502;-67
2024/03/05 05:21:19;;;;;;;46.00;26.20;;;10.00;99.90;;;;;;5020078;28;20746;-67
2024/03/05 05:23:45;;;;;;;47.83;28.33;;;10.00;99.90;;;;;;5021197;28;20690;-67
2024/03/05 05:26:12;;;;;;;47.07;28.17;;;10.00;99.90;;;;;;5026628;28;20294;-67
2024/03/05 05:28:40;;;;;;;48.83;25.00;;;10.10;99.90;;;;;;5026899;28;20187;-67
2024/03/05 05:31:08;;;;;;;40.57;26.10;;;10.10;99.90;;;;;;5025335;28;20487;-67
2024/03/05 05:33:33;;;;;;;43.80;26.47;;;10.10;99.90;;;;;;5026022;28;20434;-67
2024/03/05 05:35:59;;;;;;;56.73;29.23;;;10.00;99.90;;;;;;5026534;28;20419;-68
2024/03/05 05:38:24;;;;;;;53.37;28.40;;;10.00;99.90;;;;;;5029749;28;20207;-68
2024/03/05 05:40:50;;;;;;;46.63;26.53;;;10.00;99.90;;;;;;5020125;28;20701;-67
2024/03/05 05:43:15;;;;;;;55.50;30.17;;;10.00;99.90;;;;;;5027170;28;20184;-67
2024/03/05 05:45:41;;;;;;;47.67;27.33;;;10.00;99.90;;;;;;5024879;28;20219;-67
2024/03/05 05:48:23;;;;;;;53.73;28.70;;;10.00;99.90;;;;;;5022112;28;20186;-67
2024/03/05 05:50:58;;;;;;;51.50;27.37;;;10.00;99.90;;;;;;5030609;28;20635;-67
2024/03/05 05:53:24;;;;;;;47.87;28.80;;;9.90;99.90;;;;;;5021056;28;21302;-67
2024/03/05 05:55:49;;;;;;;46.83;25.93;;;9.90;99.90;;;;;;5022426;28;20430;-68
2024/03/05 05:58:15;;;;;;;54.90;31.70;;;9.80;99.90;;;;;;5020294;28;20196;-67
2024/03/05 06:00:41;;;;;;;52.47;31.27;;;9.80;99.90;;;;;;5022464;28;20188;-67
2024/03/05 06:03:08;;;;;;;50.73;30.53;;;9.80;99.90;;;;;;5024948;28;20199;-67
2024/03/05 06:05:36;;;;;;;54.13;28.77;;;9.80;99.90;;;;;;5001443;28;21000;-67
2024/03/05 06:08:03;;;;;;;59.80;30.80;;;9.80;99.90;;;;;;5022757;28;20423;-68
2024/03/05 06:10:29;;;;;;;55.10;29.87;;;9.70;99.90;;;;;;5022733;28;20509;-67
2024/03/05 06:12:55;;;;;;;59.10;29.53;;;9.70;99.90;;;;;;5022406;28;20463;-67
2024/03/05 06:15:21;;;;;;;51.87;28.37;;;9.70;99.90;;;;;;5022043;28;20698;-67
2024/03/05 06:17:48;;;;;;;50.77;26.60;;;9.90;99.90;;;;;;5021832;28;20486;-68
2024/03/05 06:20:14;;;;;;;50.77;28.97;;;9.70;99.90;;;;;;5020937;28;20537;-68
2024/03/05 06:22:41;;;;;;;50.77;27.30;;;9.60;99.90;;;;;;5025835;28;20419;-68
2024/03/05 06:25:08;;;;;;;53.37;28.77;;;9.60;99.90;;;;;;5022516;28;20553;-67
2024/03/05 06:27:37;;;;;;;48.63;27.00;;;9.70;99.90;;;;;;5019814;28;20442;-67
2024/03/05 06:30:07;;;;;;;48.03;29.07;;;9.70;99.90;;;;;;5023577;28;20422;-68
2024/03/05 06:32:41;;;;;;;48.33;26.17;;;9.70;99.90;;;;;;5017555;28;20831;-68
2024/03/05 06:35:10;;;;;;;42.70;25.40;;;9.70;99.90;;;;;;5020778;28;20439;-68
2024/03/05 06:37:37;;;;;;;50.50;28.67;;;9.70;99.90;;;;;;5023573;28;20421;-67
2024/03/05 06:40:09;;;;;;;45.97;25.33;;;9.60;99.90;;;;;;5020900;28;20426;-68
2024/03/05 06:42:51;;;;;;;47.60;26.67;;;9.70;99.90;;;;;;5019150;28;20453;-68
2024/03/05 06:45:24;;;;;;;45.53;26.50;;;9.60;99.90;;;;;;5022649;28;20835;-67
2024/03/05 06:47:56;;;;;;;48.67;27.40;;;9.50;99.90;;;;;;5019086;28;20411;-67
2024/03/05 06:50:33;;;;;;;44.43;26.20;;;9.60;99.90;;;;;;5021663;28;20519;-67
2024/03/05 06:58:35;;;;;;;40.37;26.80;;;9.60;99.90;;;;;;5017489;28;20450;-67
2024/03/05 07:01:07;;;;;;;50.93;27.50;;;9.50;99.90;;;;;;5019766;28;20423;-67
2024/03/05 07:03:34;;;;;;;47.73;28.03;;;9.60;99.90;;;;;;5018299;28;20428;-67
2024/03/05 07:06:07;;;;;;;45.17;27.30;;;9.60;99.90;;;;;;5020542;28;20431;-67
2024/03/05 07:08:34;;;;;;;44.60;28.90;;;9.60;99.90;;;;;;5017799;28;20475;-67
2024/03/05 07:11:00;;;;;;;44.33;26.47;;;9.60;99.90;;;;;;5031176;28;20420;-67
2024/03/05 07:13:28;;;;;;;42.83;25.30;;;9.70;99.90;;;;;;5018717;28;20788;-67
2024/03/05 07:15:56;;;;;;;45.77;26.83;;;9.60;99.90;;;;;;5025195;28;20922;-67
2024/03/05 07:18:22;;;;;;;45.70;26.77;;;9.60;99.90;;;;;;5020283;28;20474;-67
2024/03/05 07:20:47;;;;;;;52.83;27.63;;;9.50;99.90;;;;;;5025486;28;20905;-67
2024/03/05 07:23:13;;;;;;;42.17;26.30;;;9.50;99.90;;;;;;5022754;28;20183;-68
2024/03/05 07:25:39;;;;;;;46.03;27.37;;;9.60;99.90;;;;;;5022929;28;20355;-68
2024/03/05 07:28:04;;;;;;;37.93;22.93;;;9.60;99.90;;;;;;5016996;28;20200;-68
2024/03/05 07:30:30;;;;;;;41.20;25.90;;;9.70;99.90;;;;;;5025734;28;20184;-67
2024/03/05 07:32:56;;;;;;;44.53;25.17;;;9.70;99.90;;;;;;5016302;28;20627;-67
2024/03/05 07:35:22;;;;;;;41.57;25.87;;;9.60;99.90;;;;;;5016061;28;20304;-67
2024/03/05 07:37:48;;;;;;;45.63;26.10;;;9.60;99.90;;;;;;5023526;28;20519;-67
2024/03/05 07:40:17;;;;;;;46.07;29.03;;;9.70;99.90;;;;;;5023796;28;20188;-67
2024/03/05 07:42:45;;;;;;;42.80;24.07;;;9.60;99.90;;;;;;5018488;28;20616;-67
2024/03/05 07:45:12;;;;;;;43.23;25.97;;;9.60;99.90;;;;;;5031356;28;20467;-67
2024/03/05 07:47:38;;;;;;;36.93;22.83;;;9.70;99.90;;;;;;5023538;28;20412;-67
2024/03/05 07:50:05;;;;;;;41.70;24.57;;;9.60;99.90;;;;;;5032352;28;20415;-67
2024/03/05 07:52:30;;;;;;;36.10;24.90;;;9.70;99.90;;;;;;5021739;28;20177;-68
2024/03/05 07:54:56;;;;;;;39.30;24.30;;;9.60;99.90;;;;;;5024907;28;20973;-68
2024/03/05 07:57:22;;;;;;;37.97;24.63;;;9.70;99.90;;;;;;5016773;28;20770;-67
2024/03/05 07:59:47;;;;;;;42.10;26.30;;;9.70;99.90;;;;;;5020326;28;20446;-68
2024/03/05 08:02:14;;;;;;;44.20;25.37;;;9.80;99.90;;;;;;5020920;28;20215;-67
2024/03/05 08:04:40;;;;;;;38.07;24.90;;;9.90;99.90;;;;;;5017974;28;20473;-67
2024/03/05 08:07:07;;;;;;;39.03;25.73;;;9.80;99.90;;;;;;5013888;28;20227;-67
2024/03/05 08:09:36;;;;;;;35.77;21.97;;;9.80;99.90;;;;;;5019670;28;20188;-67
2024/03/05 08:12:02;;;;;;;36.10;23.80;;;9.80;99.90;;;;;;5013829;28;20425;-67
2024/03/05 08:14:30;;;;;;;37.60;23.47;;;9.80;99.90;;;;;;5021996;28;20434;-67
2024/03/05 08:16:55;;;;;;;30.83;21.40;;;9.70;99.90;;;;;;5020913;28;21113;-67
2024/03/05 08:19:21;;;;;;;32.40;21.50;;;9.70;99.90;;;;;;5020066;28;20676;-67
2024/03/05 08:21:46;;;;;;;38.60;24.77;;;9.70;99.90;;;;;;5017785;28;20268;-67
2024/03/05 08:24:12;;;;;;;34.47;22.00;;;9.70;99.90;;;;;;5021080;28;20221;-67
2024/03/05 08:26:38;;;;;;;33.83;22.70;;;9.80;99.90;;;;;;5017458;28;20204;-68
2024/03/05 08:29:03;;;;;;;35.57;23.87;;;9.70;99.90;;;;;;5026932;28;20180;-67
2024/03/05 08:31:29;;;;;;;33.40;22.60;;;9.70;99.90;;;;;;5020425;28;20236;-67
2024/03/05 08:33:55;;;;;;;33.13;23.07;;;9.70;99.90;;;;;;5016216;28;20216;-67
2024/03/05 08:36:22;;;;;;;36.00;25.00;;;9.70;99.90;;;;;;5017212;28;20207;-67
2024/03/05 08:38:47;;;;;;;33.77;22.13;;;9.70;99.90;;;;;;5024564;28;20525;-67
2024/03/05 08:41:14;;;;;;;33.47;24.10;;;9.70;99.90;;;;;;5035792;28;20451;-67
2024/03/05 08:43:40;;;;;;;33.83;23.20;;;9.70;99.90;;;;;;5019402;28;20176;-67
2024/03/05 08:46:08;;;;;;;34.57;24.73;;;9.60;99.90;;;;;;5018569;28;20895;-68
2024/03/05 08:48:33;;;;;;;39.17;26.27;;;9.50;99.90;;;;;;5024299;28;20177;-68
2024/03/05 08:50:59;;;;;;;33.17;23.73;;;9.50;99.90;;;;;;5026491;28;20465;-68
2024/03/05 08:53:25;;;;;;;30.93;22.60;;;9.50;99.90;;;;;;5018854;28;20211;-68
2024/03/05 08:55:52;;;;;;;42.23;27.10;;;9.60;99.90;;;;;;5022859;28;20192;-68
2024/03/05 08:58:18;;;;;;;32.50;22.43;;;9.60;99.90;;;;;;5028184;28;20631;-69
2024/03/05 09:00:44;;;;;;;34.80;23.40;;;9.50;99.90;;;;;;5023854;28;20427;-68
2024/03/05 09:03:11;;;;;;;32.67;23.57;;;9.60;99.90;;;;;;5022313;28;20435;-68
2024/03/05 09:05:37;;;;;;;34.20;23.17;;;9.70;99.90;;;;;;5021568;28;20523;-69
2024/03/05 09:08:04;;;;;;;37.40;22.77;;;9.70;99.90;;;;;;5027968;28;20426;-68
2024/03/05 09:10:31;;;;;;;32.17;21.77;;;9.70;99.90;;;;;;5028635;28;20176;-68
2024/03/05 09:12:58;;;;;;;27.40;20.53;;;9.90;99.90;;;;;;5025194;28;20907;-68
2024/03/05 09:15:25;;;;;;;33.47;23.20;;;9.80;99.90;;;;;;5022718;28;20603;-68
2024/03/05 09:17:51;;;;;;;30.20;21.50;;;9.90;99.90;;;;;;5025822;28;20537;-69
2024/03/05 09:20:17;;;;;;;29.77;21.47;;;9.90;99.90;;;;;;5027130;28;20584;-69
2024/03/05 09:22:44;;;;;;;27.50;19.73;;;9.90;99.90;;;;;;5023845;28;20197;-69
2024/03/05 09:25:14;;;;;;;33.20;20.93;;;10.00;99.90;;;;;;5026964;28;20216;-68
2024/03/05 09:27:42;;;;;;;24.37;17.20;;;10.00;99.90;;;;;;5027915;28;20447;-68
2024/03/05 09:30:08;;;;;;;26.43;17.83;;;10.00;99.90;;;;;;5020533;28;20964;-69
2024/03/05 09:32:34;;;;;;;23.70;18.43;;;9.90;99.90;;;;;;5028052;28;20910;-69
2024/03/05 09:35:00;;;;;;;23.07;17.73;;;9.80;99.90;;;;;;5020321;28;20605;-68
2024/03/05 09:37:28;;;;;;;26.17;18.57;;;9.80;99.90;;;;;;5024261;28;20501;-68
2024/03/05 09:39:54;;;;;;;23.13;16.87;;;9.80;99.90;;;;;;5029847;28;20559;-68
2024/03/05 09:42:20;;;;;;;20.10;16.87;;;9.80;99.90;;;;;;5020388;28;20427;-68
2024/03/05 09:44:49;;;;;;;27.93;17.20;;;9.80;99.90;;;;;;5021236;28;20610;-69
2024/03/05 09:47:17;;;;;;;26.70;16.57;;;9.80;99.90;;;;;;5027124;28;20423;-68
2024/03/05 09:49:44;;;;;;;21.53;15.93;;;9.90;99.90;;;;;;5029416;28;20537;-69
2024/03/05 09:52:11;;;;;;;23.67;15.20;;;9.90;99.90;;;;;;5026973;28;20459;-68
2024/03/05 09:54:36;;;;;;;21.67;15.67;;;9.90;99.90;;;;;;5026242;28;20462;-68
2024/03/05 09:57:04;;;;;;;23.10;15.83;;;9.80;99.90;;;;;;5022923;28;20450;-69
2024/03/05 09:59:30;;;;;;;21.27;15.53;;;9.80;99.90;;;;;;5029203;28;20184;-69
2024/03/05 10:01:55;;;;;;;20.13;14.20;;;9.80;99.90;;;;;;5020977;28;20433;-69
2024/03/05 10:04:26;;;;;;;20.57;14.60;;;9.80;99.90;;;;;;5021639;28;20266;-68
2024/03/05 10:06:52;;;;;;;18.97;14.33;;;9.90;99.90;;;;;;5032356;28;20179;-68
2024/03/05 10:09:18;;;;;;;24.93;14.90;;;9.90;99.90;;;;;;5023348;28;20418;-68
2024/03/05 10:11:44;;;;;;;22.73;15.10;;;9.90;99.90;;;;;;5022027;28;20930;-68
2024/03/05 10:14:11;;;;;;;22.33;15.50;;;10.00;99.90;;;;;;5020468;28;20236;-69
2024/03/05 10:16:38;;;;;;;23.10;15.77;;;10.00;99.90;;;;;;5015408;28;20822;-68
2024/03/05 10:19:40;;;;;;;20.23;13.40;;;10.10;99.90;;;;;;5027087;28;20787;-68
2024/03/05 10:22:11;;;;;;;19.97;13.70;;;9.90;99.90;;;;;;5019769;28;20461;-68
2024/03/05 10:24:37;;;;;;;13.90;11.10;;;10.00;99.90;;;;;;5033142;28;20831;-68
2024/03/05 10:27:03;;;;;;;16.00;11.23;;;10.10;99.90;;;;;;5021864;28;20419;-68
2024/03/05 10:29:37;;;;;;;14.70;11.17;;;10.20;99.90;;;;;;5016369;28;20216;-68
2024/03/05 10:32:09;;;;;;;15.30;10.73;;;10.20;99.90;;;;;;5021600;28;20594;-68
2024/03/05 10:34:42;;;;;;;10.87;9.17;;;10.20;99.90;;;;;;5021471;28;21035;-68
2024/03/05 10:37:07;;;;;;;13.10;9.33;;;10.20;99.90;;;;;;5030274;28;20415;-69
2024/03/05 10:39:34;;;;;;;8.40;7.20;;;10.40;99.90;;;;;;5025954;28;20683;-69
2024/03/05 10:42:01;;;;;;;8.60;6.97;;;10.50;99.90;;;;;;5021105;28;20188;-69
2024/03/05 10:44:28;;;;;;;9.67;6.23;;;10.50;99.90;;;;;;5020676;28;20464;-68
2024/03/05 10:46:55;;;;;;;10.30;6.27;;;10.60;99.90;;;;;;5019933;28;20423;-68
2024/03/05 10:49:21;;;;;;;9.30;6.80;;;10.60;99.90;;;;;;5021699;28;20412;-69
2024/03/05 10:51:48;;;;;;;8.43;6.30;;;10.60;99.90;;;;;;5023643;28;20511;-67
2024/03/05 10:54:14;;;;;;;8.77;6.57;;;10.70;99.90;;;;;;5021301;28;20832;-68
2024/03/05 10:56:39;;;;;;;7.90;6.20;;;10.90;99.90;;;;;;5024912;28;20464;-67
2024/03/05 10:59:23;;;;;;;6.53;5.10;;;11.20;99.90;;;;;;5021345;28;20539;-68
2024/03/05 11:01:53;;;;;;;7.00;5.03;;;11.30;99.90;;;;;;5020550;28;20185;-67
2024/03/05 11:04:22;;;;;;;7.33;4.73;;;11.30;99.90;;;;;;5014402;28;20468;-68
2024/03/05 11:06:54;;;;;;;7.67;4.17;;;11.10;99.90;;;;;;5018173;28;20505;-68
2024/03/05 11:09:22;;;;;;;5.77;3.80;;;11.10;99.90;;;;;;5019624;28;20433;-67
2024/03/05 11:12:08;;;;;;;5.60;4.43;;;10.90;99.90;;;;;;5017121;28;20993;-67
2024/03/05 11:14:35;;;;;;;5.40;4.43;;;10.90;99.90;;;;;;5023153;28;20549;-67
2024/03/05 11:17:11;;;;;;;6.47;4.67;;;10.90;99.90;;;;;;5017072;28;20447;-67
2024/03/05 11:19:39;;;;;;;6.30;3.80;;;10.80;99.90;;;;;;5021058;28;20430;-67
2024/03/05 11:22:26;;;;;;;7.50;3.77;;;10.80;99.90;;;;;;5023653;28;20449;-67
2024/03/05 11:25:01;;;;;;;11.03;3.97;;;10.80;99.90;;;;;;5019186;28;20525;-67
2024/03/05 11:27:29;;;;;;;5.20;3.67;;;10.80;99.90;;;;;;5021484;28;20530;-69
2024/03/05 11:30:12;;;;;;;6.00;4.73;;;10.90;99.90;;;;;;5015866;28;20438;-68
2024/03/05 11:32:39;;;;;;;5.27;3.80;;;10.80;99.90;;;;;;5018791;28;20407;-68
2024/03/05 11:35:09;;;;;;;5.10;4.10;;;10.90;99.90;;;;;;5021887;28;20463;-68
2024/03/05 11:37:47;;;;;;;6.40;4.37;;;11.00;99.90;;;;;;5022368;28;20438;-68
2024/03/05 11:40:14;;;;;;;5.10;4.40;;;11.20;99.90;;;;;;5026321;28;20423;-68
2024/03/05 11:42:47;;;;;;;5.00;4.50;;;11.30;99.90;;;;;;5022196;28;20495;-68
2024/03/05 11:45:48;;;;;;;6.37;4.00;;;11.10;99.90;;;;;;5021287;28;20796;-68
2024/03/05 11:48:16;;;;;;;4.77;3.83;;;11.10;99.90;;;;;;5020100;28;20435;-68
2024/03/05 11:50:43;;;;;;;3.00;2.70;;;11.20;99.90;;;;;;5017915;28;20443;-68
2024/03/05 11:53:09;;;;;;;4.50;2.80;;;11.40;99.90;;;;;;5021362;28;20847;-68
2024/03/05 11:55:36;;;;;;;5.80;3.43;;;11.60;99.90;;;;;;5018375;28;20479;-68
2024/03/05 11:58:02;;;;;;;4.73;3.43;;;11.90;99.90;;;;;;5020295;28;20445;-68
2024/03/05 12:00:29;;;;;;;4.30;3.50;;;12.00;99.90;;;;;;5021317;28;20408;-68
2024/03/05 12:02:58;;;;;;;4.70;3.30;;;12.20;99.90;;;;;;5022498;28;20850;-68
2024/03/05 12:05:25;;;;;;;5.53;3.70;;;12.30;99.90;;;;;;5013218;28;20476;-68
2024/03/05 12:08:06;;;;;;;3.83;2.90;;;12.40;99.90;;;;;;5021660;28;20745;-68
2024/03/05 12:10:36;;;;;;;3.30;2.80;;;12.60;99.90;;;;;;5021671;28;20416;-68
2024/03/05 12:13:03;;;;;;;4.23;3.10;;;12.60;99.90;;;;;;5018433;28;20419;-68
2024/03/05 12:15:29;;;;;;;4.13;3.03;;;12.20;99.90;;;;;;5019452;28;20444;-68
2024/03/05 12:17:56;;;;;;;5.57;3.90;;;12.00;99.90;;;;;;5013567;28;20448;-67
2024/03/05 12:20:23;;;;;;;3.60;2.97;;;12.00;99.90;;;;;;5015929;28;20486;-68
2024/03/05 12:22:57;;;;;;;6.60;5.10;;;12.00;99.90;;;;;;5022146;28;20959;-68
2024/03/05 12:25:27;;;;;;;6.27;2.83;;;11.90;99.90;;;;;;5021795;28;20790;-68
2024/03/05 12:27:53;;;;;;;5.07;3.43;;;11.90;99.90;;;;;;5018263;28;20476;-68
2024/03/05 12:30:19;;;;;;;6.37;3.50;;;12.10;99.90;;;;;;5019072;28;20931;-68
2024/03/05 12:32:52;;;;;;;5.20;3.27;;;12.30;99.90;;;;;;5014128;28;20419;-68
2024/03/05 12:35:20;;;;;;;4.27;3.17;;;12.40;99.90;;;;;;5014545;28;20882;-68
2024/03/05 12:37:50;;;;;;;5.00;3.77;;;12.50;99.90;;;;;;5021437;28;20416;-68
2024/03/05 12:40:19;;;;;;;16.17;3.77;;;12.40;99.90;;;;;;5021946;28;21107;-68